KJRB/JRB METAR and TAF weather

Enter ICAO airport designator
Station Type Date Time Source
KJRB METAR 2021/06/24 05:56 UTC NOAA

KJRB 240556Z AUTO 23004KT 10SM CLR 18/11 A3033 RMK AO2 SLP270 T01780106 10217 20178 51010


Station Type Date Time Source
KJRB Decoded METAR 2021/06/24 05:56 UTC NOAA

Station name not available
Jun 24, 2021 - 01:56 AM EDT / 2021.06.24 0556 UTC
Wind: from the SW (230 degrees) at 5 MPH (4 KT):0
Visibility: 10 mile(s):0
Sky conditions: clear
Temperature: 64.0 F (17.8 C)
Dew Point: 51.1 F (10.6 C)
Relative Humidity: 62%
Pressure (altimeter): 30.33 in. Hg (1027 hPa)
Pressure tendency: 0.03 inches (1.0 hPa) higher than three hours ago
ob: KJRB 240556Z AUTO 23004KT 10SM CLR 18/11 A3033 RMK AO2 SLP270 T01780106 10217 20178 51010
cycle: 6

Station Type Date Time Source
KJRB TAF UTC NOAA

Error!

Example: see airport list